createdAt,value
2018-10-17T00:04:30.444Z,11.77
2018-10-17T00:09:33.626Z,13.03
2018-10-17T00:14:36.798Z,12.27
2018-10-17T00:19:39.956Z,12.07
2018-10-17T00:24:43.143Z,12.37
2018-10-17T00:29:46.292Z,12.03
2018-10-17T00:34:49.459Z,11.80
2018-10-17T00:39:52.606Z,12.00
2018-10-17T00:44:55.763Z,12.87
2018-10-17T00:49:58.917Z,11.70
2018-10-17T00:55:02.074Z,12.80
2018-10-17T01:00:05.318Z,11.60
2018-10-17T01:05:08.568Z,12.43
2018-10-17T01:10:11.683Z,12.00
2018-10-17T01:15:14.841Z,12.37
2018-10-17T01:20:17.999Z,11.87
2018-10-17T01:25:21.157Z,12.37
2018-10-17T01:30:24.342Z,11.83
2018-10-17T01:35:28.006Z,11.13
2018-10-17T01:40:31.165Z,11.30
2018-10-17T01:45:34.316Z,11.80
2018-10-17T01:50:37.511Z,12.23
2018-10-17T01:55:40.670Z,11.13
2018-10-17T02:00:43.818Z,11.47
2018-10-17T02:05:46.979Z,10.90
2018-10-17T02:10:50.133Z,11.77
2018-10-17T02:15:53.834Z,11.70
2018-10-17T02:20:57.030Z,11.13
2018-10-17T02:26:00.166Z,11.00
2018-10-17T02:31:03.425Z,10.63
2018-10-17T02:36:06.546Z,10.63
2018-10-17T02:41:09.729Z,10.20
2018-10-17T02:46:12.866Z,10.13
2018-10-17T02:51:16.018Z,10.27
2018-10-17T02:56:19.166Z,9.03
2018-10-17T03:01:22.319Z,8.73
2018-10-17T03:06:25.562Z,8.97
2018-10-17T03:11:28.749Z,9.07
2018-10-17T03:16:31.872Z,9.83
2018-10-17T03:21:35.025Z,8.77
2018-10-17T03:26:38.162Z,8.93
2018-10-17T03:31:41.329Z,9.93
2018-10-17T03:36:44.475Z,8.70
2018-10-17T03:41:47.638Z,8.20
2018-10-17T03:46:50.846Z,9.10
2018-10-17T03:51:53.980Z,9.07
2018-10-17T03:56:57.123Z,8.73
2018-10-17T04:02:00.285Z,9.03
2018-10-17T04:07:03.462Z,8.23
2018-10-17T04:12:06.585Z,9.07
2018-10-17T04:17:09.784Z,9.70
2018-10-17T04:22:12.886Z,8.53
2018-10-17T04:27:16.100Z,8.07
2018-10-17T04:32:19.222Z,9.00
2018-10-17T04:37:22.365Z,8.50
2018-10-17T04:42:25.599Z,8.33
2018-10-17T04:47:28.893Z,8.43
2018-10-17T04:52:32.102Z,7.80
2018-10-17T04:57:35.254Z,7.70
2018-10-17T05:02:38.442Z,8.60
2018-10-17T05:07:41.607Z,7.70
2018-10-17T05:12:44.844Z,7.90
2018-10-17T05:17:48.006Z,8.73
2018-10-17T05:22:51.216Z,8.57
2018-10-17T05:27:54.341Z,9.17
2018-10-17T05:32:57.494Z,9.00
2018-10-17T05:38:00.803Z,9.73
2018-10-17T05:43:04.157Z,8.30
2018-10-17T05:48:07.290Z,8.90
2018-10-17T05:53:10.531Z,9.33
2018-10-17T05:58:14.075Z,8.43
2018-10-17T06:03:17.250Z,8.83
2018-10-17T06:08:20.406Z,9.07
2018-10-17T06:13:23.579Z,8.40
2018-10-17T06:18:26.733Z,11.23
2018-10-17T06:23:29.882Z,12.77
2018-10-17T06:28:33.098Z,15.37
2018-10-17T06:33:36.281Z,15.23
2018-10-17T06:38:39.451Z,15.10
2018-10-17T06:43:42.706Z,14.83
2018-10-17T06:48:45.782Z,17.13
2018-10-17T06:53:49.100Z,14.97
2018-10-17T06:58:52.232Z,13.80
2018-10-17T07:03:55.347Z,13.27
2018-10-17T07:08:58.513Z,13.47
2018-10-17T07:14:01.690Z,12.13
2018-10-17T07:19:05.107Z,11.10
2018-10-17T07:24:08.303Z,10.53
2018-10-17T07:29:11.486Z,11.40
2018-10-17T07:34:14.639Z,9.60
2018-10-17T07:39:17.815Z,10.83
2018-10-17T07:44:21.003Z,8.70
2018-10-17T07:49:24.139Z,9.47
2018-10-17T07:54:27.294Z,8.57
2018-10-17T07:59:30.525Z,9.20
2018-10-17T08:04:33.698Z,9.07
2018-10-17T08:09:36.859Z,8.73
2018-10-17T08:14:41.939Z,8.90
2018-10-17T08:19:45.087Z,7.83
2018-10-17T08:24:48.279Z,8.30
2018-10-17T08:29:51.510Z,8.23
2018-10-17T08:34:54.707Z,7.87
2018-10-17T08:39:57.898Z,7.97
2018-10-17T08:45:01.220Z,7.90
2018-10-17T08:50:04.432Z,8.37
2018-10-17T08:55:07.519Z,6.80
2018-10-17T09:00:10.697Z,6.77
2018-10-17T09:05:13.931Z,6.60
2018-10-17T09:10:17.074Z,6.90
2018-10-17T09:15:21.681Z,6.60
2018-10-17T09:20:25.016Z,6.63
2018-10-17T09:25:28.836Z,8.67
2018-10-17T09:30:32.282Z,10.40
2018-10-17T09:35:35.282Z,10.07
2018-10-17T09:40:38.398Z,9.83
2018-10-17T09:45:41.563Z,10.57
2018-10-17T09:50:44.718Z,9.93
2018-10-17T09:55:47.876Z,9.80
2018-10-17T10:00:56.459Z,9.60
2018-10-17T10:05:59.656Z,7.97
2018-10-17T10:11:02.861Z,6.47
2018-10-17T10:16:06.041Z,6.13
2018-10-17T10:21:09.370Z,6.43
2018-10-17T10:26:12.601Z,5.90
2018-10-17T10:31:16.154Z,5.83
2018-10-17T10:36:19.523Z,6.83
2018-10-17T10:41:22.668Z,7.10
2018-10-17T10:46:25.826Z,7.10
2018-10-17T10:51:28.995Z,6.63
2018-10-17T10:56:32.124Z,6.43
2018-10-17T11:01:35.267Z,6.83
2018-10-17T11:06:38.445Z,6.20
2018-10-17T11:11:41.622Z,7.20
2018-10-17T11:16:44.789Z,7.23
2018-10-17T11:21:47.976Z,6.67
2018-10-17T11:26:51.097Z,6.70
2018-10-17T11:31:54.330Z,6.43
2018-10-17T11:36:57.454Z,5.90
2018-10-17T11:42:00.632Z,6.40
2018-10-17T11:47:03.822Z,6.23
2018-10-17T11:52:07.975Z,6.13
2018-10-17T11:57:11.151Z,6.20
2018-10-17T12:02:14.402Z,6.57
2018-10-17T12:07:17.579Z,6.23
2018-10-17T12:12:20.819Z,6.30
2018-10-17T12:17:24.052Z,6.60
2018-10-17T12:22:27.198Z,6.53
2018-10-17T12:27:31.042Z,6.27
2018-10-17T12:32:34.874Z,6.30
2018-10-17T12:37:38.139Z,6.67
2018-10-17T12:42:41.372Z,6.13
2018-10-17T12:47:44.539Z,7.03
2018-10-17T12:52:47.848Z,6.83
2018-10-17T12:57:50.865Z,6.47
2018-10-17T13:02:54.426Z,7.10
2018-10-17T13:07:57.606Z,6.37
2018-10-17T13:13:00.819Z,6.47
2018-10-17T13:18:03.961Z,6.23
2018-10-17T13:23:07.136Z,6.57
2018-10-17T13:28:10.270Z,6.90
2018-10-17T13:33:14.238Z,7.23
2018-10-17T13:38:17.396Z,7.47
2018-10-17T13:43:20.665Z,8.17
2018-10-17T13:48:24.761Z,7.37
2018-10-17T13:53:27.913Z,8.57
2018-10-17T13:58:31.375Z,8.23
2018-10-17T14:03:34.532Z,9.17
2018-10-17T14:08:37.685Z,9.50
2018-10-17T14:13:40.898Z,9.37
2018-10-17T14:18:44.110Z,8.87
2018-10-17T14:23:47.271Z,9.03
2018-10-17T14:28:50.439Z,9.70
2018-10-17T14:33:53.600Z,9.00
2018-10-17T14:38:57.026Z,8.77
2018-10-17T14:44:00.202Z,9.37
2018-10-17T14:49:03.625Z,9.90
2018-10-17T14:54:06.830Z,9.50
2018-10-17T14:59:10.026Z,9.47
2018-10-17T15:04:13.375Z,9.03
2018-10-17T15:09:17.365Z,9.60
2018-10-17T15:14:20.955Z,9.70
2018-10-17T15:19:24.186Z,10.00
2018-10-17T15:24:27.504Z,9.87
2018-10-17T15:29:30.655Z,9.67
2018-10-17T15:34:33.944Z,10.07
2018-10-17T15:39:37.146Z,10.57
2018-10-17T15:44:40.306Z,11.57
2018-10-17T15:49:43.615Z,11.27
2018-10-17T15:54:47.750Z,10.53
2018-10-17T15:59:51.468Z,10.67
2018-10-17T16:04:54.566Z,10.83
2018-10-17T16:09:58.830Z,10.67
2018-10-17T16:15:02.164Z,10.70
2018-10-17T16:20:07.161Z,10.67
2018-10-17T16:25:10.422Z,10.60
2018-10-17T16:30:13.694Z,10.57
2018-10-17T16:35:16.783Z,10.47
2018-10-17T16:40:19.958Z,11.13
2018-10-17T16:45:23.130Z,11.77
2018-10-17T16:50:26.352Z,12.07
2018-10-17T16:55:29.455Z,11.53
2018-10-17T17:00:32.654Z,11.40
2018-10-17T17:05:35.818Z,12.63
2018-10-17T17:10:38.974Z,11.27
2018-10-17T17:15:42.139Z,12.63
2018-10-17T17:20:45.331Z,12.47
2018-10-17T17:25:48.515Z,13.10
2018-10-17T17:30:51.655Z,13.40
2018-10-17T17:35:54.830Z,14.90
2018-10-17T17:40:57.944Z,14.77
2018-10-17T17:46:01.126Z,14.80
2018-10-17T17:51:04.358Z,14.90
2018-10-17T17:56:07.515Z,14.37
2018-10-17T18:01:10.666Z,15.07
2018-10-17T18:06:14.490Z,15.43
2018-10-17T18:11:19.966Z,16.30
2018-10-17T18:16:23.855Z,15.70
2018-10-17T18:21:27.014Z,17.77
2018-10-17T18:26:30.222Z,25.03
2018-10-17T18:31:33.494Z,23.87
2018-10-17T18:36:36.675Z,28.10
2018-10-17T18:41:39.886Z,34.20
2018-10-17T18:46:43.026Z,32.10
2018-10-17T18:51:46.203Z,33.97
2018-10-17T18:56:49.345Z,34.77
2018-10-17T19:01:52.591Z,35.00
2018-10-17T19:06:55.785Z,37.00
2018-10-17T19:12:00.163Z,34.60
2018-10-17T19:17:03.315Z,35.03
2018-10-17T19:22:06.570Z,38.23
2018-10-17T19:27:09.984Z,34.87
2018-10-17T19:32:13.127Z,38.87
2018-10-17T19:37:16.356Z,36.93
2018-10-17T19:42:19.506Z,37.60
2018-10-17T19:47:22.673Z,41.10
2018-10-17T19:52:25.850Z,41.10
2018-10-17T19:57:30.044Z,42.83
2018-10-17T20:02:33.220Z,39.83
2018-10-17T20:07:36.506Z,40.07
2018-10-17T20:12:39.696Z,39.67
2018-10-17T20:17:42.894Z,41.10
2018-10-17T20:22:46.122Z,41.27
2018-10-17T20:27:49.279Z,40.53
2018-10-17T20:32:52.570Z,44.90
2018-10-17T20:37:55.778Z,42.13
2018-10-17T20:42:59.007Z,43.03
2018-10-17T20:48:02.273Z,41.07
2018-10-17T20:53:05.687Z,41.10
2018-10-17T20:58:09.276Z,43.67
2018-10-17T21:03:13.656Z,45.73
2018-10-17T21:08:16.918Z,44.80
2018-10-17T21:13:20.018Z,43.03
2018-10-17T21:18:23.325Z,45.73
2018-10-17T21:23:26.987Z,45.13
2018-10-17T21:28:30.186Z,43.40
2018-10-17T21:33:33.379Z,45.70
2018-10-17T21:38:36.671Z,49.23
2018-10-17T21:43:39.870Z,45.13
2018-10-17T21:48:43.030Z,45.13
2018-10-17T21:53:46.223Z,44.80
2018-10-17T21:58:49.400Z,46.70
2018-10-17T22:03:52.574Z,43.10
2018-10-17T22:08:55.755Z,45.80
2018-10-17T22:13:58.938Z,45.43
2018-10-17T22:19:02.189Z,42.07
2018-10-17T22:24:05.498Z,43.60
2018-10-17T22:29:08.654Z,44.90
2018-10-17T22:34:11.835Z,45.40
2018-10-17T22:39:15.478Z,44.40
2018-10-17T22:44:18.643Z,45.17
2018-10-17T22:49:21.825Z,45.07
2018-10-17T22:54:24.986Z,45.47
2018-10-17T22:59:28.786Z,46.40
2018-10-17T23:04:32.010Z,49.30
2018-10-17T23:09:35.173Z,51.43
2018-10-17T23:14:38.347Z,50.07
2018-10-17T23:19:42.380Z,48.97
2018-10-17T23:24:45.523Z,46.87
2018-10-17T23:29:48.730Z,47.83
2018-10-17T23:34:51.998Z,50.10
2018-10-17T23:39:55.155Z,52.33
2018-10-17T23:44:58.311Z,51.17
2018-10-17T23:50:01.517Z,49.87
2018-10-17T23:55:05.248Z,48.57
